Overview Statistics Trail Chart Weather Telemetry Raw packets
 

This is the latest recevied weather packets stored in our database for station/object AG1T-20. If no packets are shown the sender has not sent any weather packets the latest 10 day(s).

<< 47 48 49 50 51 52 53 >>
Time Temp. Humidity Pressure Rain* Wind** Luminosity Snow
1787885405 27.78° C 30% 1019.5 hPa 0 mm - 0 W/m² -
1787884805 27.78° C 30% 1019.5 hPa 0 mm - 0 W/m² -
1787884205 27.78° C 29% 1019.5 hPa 0 mm - 0 W/m² -
1787883610 27.22° C 31% 1019.5 hPa 0 mm - 0 W/m² -
1787883005 27.78° C 30% 1019.5 hPa 0 mm - 1 W/m² -
1787882405 27.78° C 32% 1019.5 hPa 0 mm - 2 W/m² -
1787881805 28.33° C 31% 1019.9 hPa 0 mm - 7 W/m² -
1787881205 28.89° C 29% 1019.9 hPa 0 mm - 9 W/m² -
1787880605 28.33° C 32% 1019.9 hPa 0 mm - 13 W/m² -
1787880004 28.89° C 30% 1019.9 hPa 0 mm - 20 W/m² -
1787879405 28.89° C 30% 1019.9 hPa 0 mm - 26 W/m² -
1787878804 28.33° C 30% 1019.9 hPa 0 mm - 18 W/m² -
1787878205 29.44° C 29% 1019.1 hPa 0 mm - 21 W/m² -
1787877605 29.44° C 28% 1019.1 hPa 0 mm - 41 W/m² -
1787877005 30° C 27% 1019.1 hPa 0 mm - 58 W/m² -
1787876405 30.56° C 26% 1019.1 hPa 0 mm - 87 W/m² -
1787875805 31.67° C 23% 1019.1 hPa 0 mm - 116 W/m² -
1787875212 32.22° C 24% 1019.1 hPa 0 mm - 135 W/m² -
1787874605 33.33° C 23% 1019.7 hPa 0 mm - 172 W/m² -
1787874005 33.33° C 23% 1019.7 hPa 0 mm - 162 W/m² -
1787873405 32.78° C 23% 1019.7 hPa 0 mm - 227 W/m² -
1787872805 31.11° C 26% 1019.7 hPa 0 mm - 173 W/m² -
1787872205 32.22° C 27% 1019.7 hPa 0 mm - 173 W/m² -
1787871605 32.22° C 24% 1019.7 hPa 0 mm - 175 W/m² -
1787871005 32.78° C 23% 1019.9 hPa 0 mm - 178 W/m² -

* Rain latest hour (hover to see other rain measurements)
** Current wind speed in m/s (hover to see current wind gust speed)